Time;durP1;ratioP1;P1;durP2;ratioP2;P2;SDS_P1;SDS_P2;PMS_P1;PMS_P2;Temp;Humidity;BMP_temperature;BMP_pressure;BME280_temperature;BME280_humidity;BME280_pressure;Samples;Min_cycle;Max_cycle;Signal;HPM_P1;HPM_P2
2021/10/06 00:00:16;;;;;;;8.48;3.92;;;;;;;;;;4877561;29;20434;-63
2021/10/06 00:02:42;;;;;;;10.15;3.55;;;;;;;;;;4877339;29;20029;-64
2021/10/06 00:05:08;;;;;;;11.93;3.80;;;;;;;;;;4877845;29;20389;-66
2021/10/06 00:07:34;;;;;;;11.27;3.67;;;;;;;;;;4877671;29;20037;-64
2021/10/06 00:10:00;;;;;;;10.38;4.40;;;;;;;;;;4877421;29;20441;-63
2021/10/06 00:12:26;;;;;;;9.93;3.97;;;;;;;;;;4877453;29;20136;-65
2021/10/06 00:14:53;;;;;;;13.57;4.40;;;;;;;;;;4877500;29;20395;-62
2021/10/06 00:17:20;;;;;;;12.10;4.18;;;;;;;;;;4877466;29;20025;-64
2021/10/06 00:19:46;;;;;;;11.80;3.90;;;;;;;;;;4877395;29;20032;-67
2021/10/06 00:22:12;;;;;;;11.38;4.13;;;;;;;;;;4877345;29;20165;-67
2021/10/06 00:24:38;;;;;;;10.57;3.72;;;;;;;;;;4877105;29;20037;-63
2021/10/06 00:27:04;;;;;;;11.20;4.32;;;;;;;;;;4877210;29;20033;-64
2021/10/06 00:29:30;;;;;;;9.73;3.90;;;;;;;;;;4877053;29;20037;-64
2021/10/06 00:31:56;;;;;;;12.82;4.15;;;;;;;;;;4877431;29;20225;-62
2021/10/06 00:34:22;;;;;;;17.55;4.15;;;;;;;;;;4877322;29;20057;-62
2021/10/06 00:36:48;;;;;;;10.63;3.90;;;;;;;;;;4877347;29;20452;-63
2021/10/06 00:39:14;;;;;;;12.05;4.13;;;;;;;;;;4877748;29;20093;-64
2021/10/06 00:41:40;;;;;;;10.05;3.97;;;;;;;;;;4880725;29;20033;-65
2021/10/06 00:44:06;;;;;;;10.38;4.50;;;;;;;;;;4880949;29;20029;-66
2021/10/06 00:46:32;;;;;;;15.05;4.40;;;;;;;;;;4880861;29;20036;-64
2021/10/06 00:48:58;;;;;;;7.18;3.97;;;;;;;;;;4880866;29;20843;-64
2021/10/06 00:51:24;;;;;;;8.70;4.07;;;;;;;;;;4880899;29;20029;-63
2021/10/06 00:53:50;;;;;;;11.77;4.38;;;;;;;;;;4881055;29;20108;-64
2021/10/06 00:56:18;;;;;;;14.23;4.00;;;;;;;;;;4880945;29;20049;-62
2021/10/06 00:58:45;;;;;;;9.35;4.03;;;;;;;;;;4881007;29;20033;-63
2021/10/06 01:01:11;;;;;;;13.02;4.30;;;;;;;;;;4880637;29;20033;-65
2021/10/06 01:03:37;;;;;;;9.32;4.03;;;;;;;;;;4880744;29;20041;-62
2021/10/06 01:06:03;;;;;;;14.48;4.10;;;;;;;;;;4880678;29;20021;-68
2021/10/06 01:08:29;;;;;;;10.15;4.47;;;;;;;;;;4880638;29;20069;-64
2021/10/06 01:10:56;;;;;;;9.55;4.00;;;;;;;;;;4880441;29;20036;-63
2021/10/06 01:13:22;;;;;;;10.80;4.57;;;;;;;;;;4880262;29;20072;-62
2021/10/06 01:15:48;;;;;;;16.48;4.85;;;;;;;;;;4880458;29;20124;-65
2021/10/06 01:18:14;;;;;;;14.00;4.68;;;;;;;;;;4880532;29;20318;-67
2021/10/06 01:20:40;;;;;;;10.25;4.68;;;;;;;;;;4880280;29;20033;-63
2021/10/06 01:23:06;;;;;;;9.75;4.22;;;;;;;;;;4880477;29;20033;-64
2021/10/06 01:25:32;;;;;;;9.48;4.32;;;;;;;;;;4880148;29;20036;-63
2021/10/06 01:27:58;;;;;;;11.48;4.50;;;;;;;;;;4880409;29;20037;-63
2021/10/06 01:30:24;;;;;;;11.82;4.93;;;;;;;;;;4879574;29;20036;-63
2021/10/06 01:32:50;;;;;;;13.93;5.03;;;;;;;;;;4880051;29;20053;-64
2021/10/06 01:35:17;;;;;;;9.50;4.25;;;;;;;;;;4880195;29;20045;-63
2021/10/06 01:37:44;;;;;;;11.23;4.30;;;;;;;;;;4880120;29;20097;-62
2021/10/06 01:40:12;;;;;;;12.80;4.40;;;;;;;;;;4880143;29;20501;-64
2021/10/06 01:42:39;;;;;;;10.60;4.65;;;;;;;;;;4879996;29;20052;-62
2021/10/06 01:45:05;;;;;;;17.00;4.28;;;;;;;;;;4880099;29;20529;-62
2021/10/06 01:47:31;;;;;;;11.35;4.43;;;;;;;;;;4879949;29;20041;-64
2021/10/06 01:49:57;;;;;;;13.48;5.10;;;;;;;;;;4879870;29;20509;-62
2021/10/06 01:52:24;;;;;;;16.45;5.00;;;;;;;;;;4879249;29;20471;-62
2021/10/06 01:54:52;;;;;;;10.18;4.65;;;;;;;;;;4879939;29;20358;-62
2021/10/06 01:57:19;;;;;;;13.85;5.07;;;;;;;;;;4879816;29;20108;-62
2021/10/06 01:59:46;;;;;;;12.02;4.57;;;;;;;;;;4879277;29;20035;-62
2021/10/06 02:02:13;;;;;;;13.75;4.68;;;;;;;;;;4880807;29;20494;-62
2021/10/06 02:04:39;;;;;;;13.68;4.68;;;;;;;;;;4881061;29;20438;-66
2021/10/06 02:07:05;;;;;;;9.68;4.50;;;;;;;;;;4879650;29;20496;-66
2021/10/06 02:09:31;;;;;;;11.90;4.40;;;;;;;;;;4879366;29;20089;-62
2021/10/06 02:11:58;;;;;;;14.73;4.57;;;;;;;;;;4879101;29;20053;-65
2021/10/06 02:14:24;;;;;;;14.32;4.30;;;;;;;;;;4879248;29;20044;-64
2021/10/06 02:16:50;;;;;;;12.95;4.20;;;;;;;;;;4879266;29;20025;-64
2021/10/06 02:19:16;;;;;;;9.55;4.60;;;;;;;;;;4879333;29;20040;-65
2021/10/06 02:21:42;;;;;;;10.40;4.57;;;;;;;;;;4879235;29;20032;-66
2021/10/06 02:24:08;;;;;;;9.40;4.38;;;;;;;;;;4879367;29;20053;-68
2021/10/06 02:26:34;;;;;;;18.90;4.82;;;;;;;;;;4879142;29;20029;-61
2021/10/06 02:29:00;;;;;;;11.68;4.72;;;;;;;;;;4879140;29;20064;-62
2021/10/06 02:31:27;;;;;;;12.65;4.72;;;;;;;;;;4878978;29;20122;-67
2021/10/06 02:33:53;;;;;;;14.40;5.63;;;;;;;;;;4879149;29;20040;-62
2021/10/06 02:36:19;;;;;;;12.48;4.35;;;;;;;;;;4879164;29;20033;-67
2021/10/06 02:38:45;;;;;;;10.35;5.10;;;;;;;;;;4878952;29;20089;-62
2021/10/06 02:41:11;;;;;;;11.45;4.82;;;;;;;;;;4878709;29;20029;-63
2021/10/06 02:43:37;;;;;;;13.63;4.82;;;;;;;;;;4878800;29;20052;-64
2021/10/06 02:46:03;;;;;;;8.40;4.57;;;;;;;;;;4878808;29;20096;-62
2021/10/06 02:48:29;;;;;;;12.60;5.05;;;;;;;;;;4878754;29;20044;-69
2021/10/06 02:50:55;;;;;;;10.80;4.65;;;;;;;;;;4878797;29;20104;-64
2021/10/06 02:53:21;;;;;;;11.90;5.15;;;;;;;;;;4878916;29;20029;-66
2021/10/06 02:55:47;;;;;;;12.82;5.07;;;;;;;;;;4861959;29;20124;-63
2021/10/06 02:58:13;;;;;;;9.30;4.72;;;;;;;;;;4878692;29;20025;-63
2021/10/06 03:00:40;;;;;;;11.65;5.88;;;;;;;;;;4878631;29;20025;-68
2021/10/06 03:03:06;;;;;;;14.27;5.53;;;;;;;;;;4878464;29;20100;-67
2021/10/06 03:05:32;;;;;;;15.02;4.90;;;;;;;;;;4878491;29;20040;-64
2021/10/06 03:07:58;;;;;;;11.73;4.85;;;;;;;;;;4878350;29;20084;-63
2021/10/06 03:10:24;;;;;;;12.43;5.20;;;;;;;;;;4878378;29;20081;-64
2021/10/06 03:12:50;;;;;;;11.60;5.03;;;;;;;;;;4878054;29;20145;-63
2021/10/06 03:15:16;;;;;;;14.63;5.07;;;;;;;;;;4878335;29;20443;-63
2021/10/06 03:17:42;;;;;;;11.48;5.28;;;;;;;;;;4861315;29;20037;-62
2021/10/06 03:20:09;;;;;;;11.07;5.43;;;;;;;;;;4878422;29;20160;-63
2021/10/06 03:22:35;;;;;;;14.40;5.88;;;;;;;;;;4878399;29;20025;-66
2021/10/06 03:25:01;;;;;;;11.50;5.82;;;;;;;;;;4878290;29;20031;-62
2021/10/06 05:18:14;;;;;;;9.10;4.78;;;;;;;;;;5107969;23;20379;-63
2021/10/06 05:20:40;;;;;;;11.93;5.20;;;;;;;;;;4940351;29;20040;-63
2021/10/06 05:23:06;;;;;;;11.60;5.00;;;;;;;;;;4938880;29;20027;-66
2021/10/06 05:25:34;;;;;;;12.07;5.80;;;;;;;;;;4938404;29;20036;-64
2021/10/06 05:28:01;;;;;;;14.85;5.05;;;;;;;;;;4935738;29;20449;-66
2021/10/06 05:30:27;;;;;;;10.80;5.38;;;;;;;;;;4936121;29;20024;-65
2021/10/06 05:32:53;;;;;;;15.68;5.20;;;;;;;;;;4936186;29;20047;-64
2021/10/06 05:35:19;;;;;;;14.40;4.90;;;;;;;;;;4936303;29;20031;-63
2021/10/06 05:37:46;;;;;;;9.63;5.00;;;;;;;;;;4931336;29;20024;-63
2021/10/06 05:40:13;;;;;;;9.50;5.13;;;;;;;;;;4935039;29;20020;-66
2021/10/06 05:42:39;;;;;;;16.83;4.78;;;;;;;;;;4932965;29;20087;-63
2021/10/06 05:45:05;;;;;;;10.82;4.80;;;;;;;;;;4935614;29;20027;-63
2021/10/06 05:47:31;;;;;;;15.50;5.78;;;;;;;;;;4934794;29;20613;-66
2021/10/06 05:49:58;;;;;;;10.07;4.90;;;;;;;;;;4934575;29;20372;-64
2021/10/06 05:52:24;;;;;;;14.07;4.97;;;;;;;;;;4934716;29;20066;-65
2021/10/06 05:54:50;;;;;;;11.82;4.90;;;;;;;;;;4934907;29;20028;-66
2021/10/06 05:57:16;;;;;;;13.25;5.15;;;;;;;;;;4935182;29;20028;-67
2021/10/06 05:59:42;;;;;;;12.20;4.82;;;;;;;;;;4935010;29;20019;-66
2021/10/06 06:02:08;;;;;;;11.38;5.10;;;;;;;;;;4935002;29;20020;-66
2021/10/06 06:04:34;;;;;;;12.27;4.78;;;;;;;;;;4934827;29;20083;-64
2021/10/06 06:07:01;;;;;;;11.82;4.88;;;;;;;;;;4935658;29;20111;-65
2021/10/06 06:09:28;;;;;;;9.18;4.82;;;;;;;;;;4935827;29;20040;-67
2021/10/06 06:11:54;;;;;;;12.98;4.82;;;;;;;;;;4935837;29;20024;-66
2021/10/06 06:14:20;;;;;;;12.77;4.80;;;;;;;;;;4935691;29;20032;-68
2021/10/06 06:16:46;;;;;;;11.57;4.88;;;;;;;;;;4912958;29;20044;-64
2021/10/06 06:19:13;;;;;;;11.13;4.63;;;;;;;;;;4932143;29;20019;-66
2021/10/06 06:21:40;;;;;;;8.40;4.60;;;;;;;;;;4935727;29;20031;-68
2021/10/06 06:24:06;;;;;;;11.43;4.55;;;;;;;;;;4936005;29;20104;-65
2021/10/06 06:26:32;;;;;;;11.82;4.88;;;;;;;;;;4930633;29;20483;-67
2021/10/06 06:28:58;;;;;;;10.45;4.78;;;;;;;;;;4916814;29;20547;-68
2021/10/06 06:31:24;;;;;;;11.48;4.55;;;;;;;;;;4916550;29;20039;-76
2021/10/06 06:33:51;;;;;;;11.90;5.47;;;;;;;;;;4916404;29;20047;-66
2021/10/06 06:36:17;;;;;;;11.25;5.22;;;;;;;;;;4918312;29;20029;-67
2021/10/06 06:38:43;;;;;;;12.93;4.78;;;;;;;;;;4916170;29;20028;-67
2021/10/06 06:41:09;;;;;;;11.88;4.90;;;;;;;;;;4914983;29;20017;-66
2021/10/06 06:43:35;;;;;;;21.33;6.22;;;;;;;;;;4910890;29;20043;-64
2021/10/06 06:46:01;;;;;;;12.50;5.00;;;;;;;;;;4907201;29;20190;-64
2021/10/06 06:48:27;;;;;;;14.60;4.85;;;;;;;;;;4914076;29;20036;-65
2021/10/06 06:50:53;;;;;;;10.18;5.38;;;;;;;;;;4914203;29;20028;-66
2021/10/06 06:53:20;;;;;;;13.57;4.63;;;;;;;;;;4908189;29;20043;-65
2021/10/06 06:55:47;;;;;;;10.48;4.97;;;;;;;;;;4914551;29;20035;-67
2021/10/06 06:58:13;;;;;;;14.90;5.45;;;;;;;;;;4915018;29;20063;-66
2021/10/06 07:00:39;;;;;;;12.10;5.30;;;;;;;;;;4914743;29;20028;-66
2021/10/06 07:03:05;;;;;;;15.73;5.78;;;;;;;;;;4907159;29;20029;-65
2021/10/06 07:05:31;;;;;;;11.45;5.15;;;;;;;;;;4911511;29;20067;-64
2021/10/06 07:07:57;;;;;;;11.85;5.40;;;;;;;;;;4916282;29;20039;-63
2021/10/06 07:10:23;;;;;;;10.35;4.40;;;;;;;;;;4915008;29;20046;-62
2021/10/06 07:12:49;;;;;;;9.45;4.90;;;;;;;;;;4914918;29;20039;-63
2021/10/06 07:15:15;;;;;;;11.10;4.90;;;;;;;;;;4916046;29;20080;-62
2021/10/06 07:17:41;;;;;;;11.68;5.18;;;;;;;;;;4915277;29;20087;-62
2021/10/06 07:20:08;;;;;;;12.40;5.40;;;;;;;;;;4915478;29;20365;-63
2021/10/06 07:22:34;;;;;;;20.15;5.00;;;;;;;;;;4915356;29;20526;-62
2021/10/06 07:25:01;;;;;;;10.68;6.20;;;;;;;;;;4915380;29;20036;-62
2021/10/06 07:27:27;;;;;;;16.17;5.63;;;;;;;;;;4915584;29;20111;-63
2021/10/06 07:29:53;;;;;;;11.80;5.05;;;;;;;;;;4915197;29;20036;-63
2021/10/06 07:32:19;;;;;;;12.88;5.68;;;;;;;;;;4915280;29;20145;-65
2021/10/06 07:34:45;;;;;;;12.55;5.63;;;;;;;;;;4915203;29;20086;-63
2021/10/06 07:37:11;;;;;;;13.10;5.82;;;;;;;;;;4915237;29;20027;-63
2021/10/06 07:39:38;;;;;;;11.35;5.18;;;;;;;;;;4914357;29;20032;-61
2021/10/06 07:42:04;;;;;;;10.43;5.07;;;;;;;;;;4914125;29;20102;-64
2021/10/06 07:44:30;;;;;;;12.50;5.60;;;;;;;;;;4911551;29;20028;-63
2021/10/06 07:46:56;;;;;;;11.70;5.40;;;;;;;;;;4913774;29;20032;-62
2021/10/06 07:49:23;;;;;;;10.18;5.22;;;;;;;;;;4913216;29;20096;-63
2021/10/06 07:51:49;;;;;;;10.57;5.40;;;;;;;;;;4914084;29;20380;-65
2021/10/06 07:54:15;;;;;;;14.23;5.60;;;;;;;;;;4913925;29;20028;-62
2021/10/06 07:56:41;;;;;;;15.23;5.45;;;;;;;;;;4913773;29;20043;-63
2021/10/06 07:59:07;;;;;;;11.98;6.00;;;;;;;;;;4913099;29;20039;-63
2021/10/06 08:01:33;;;;;;;12.35;5.68;;;;;;;;;;4913919;29;20020;-65
2021/10/06 08:03:59;;;;;;;18.02;6.57;;;;;;;;;;4914492;29;20035;-62
2021/10/06 08:06:25;;;;;;;11.55;6.10;;;;;;;;;;4914840;29;20032;-64
2021/10/06 08:08:51;;;;;;;10.80;5.75;;;;;;;;;;4914592;29;20040;-63
2021/10/06 08:11:17;;;;;;;12.27;6.20;;;;;;;;;;4914597;29;20028;-65
2021/10/06 08:13:43;;;;;;;14.85;6.63;;;;;;;;;;4914057;29;20039;-66
2021/10/06 08:16:09;;;;;;;20.17;7.50;;;;;;;;;;4913621;29;20024;-66
2021/10/06 08:18:35;;;;;;;12.68;6.68;;;;;;;;;;4913300;29;20048;-66
2021/10/06 08:21:01;;;;;;;11.38;6.43;;;;;;;;;;4914016;29;20062;-63
2021/10/06 08:23:30;;;;;;;16.77;7.22;;;;;;;;;;4914102;29;20036;-63
2021/10/06 08:25:56;;;;;;;14.07;6.95;;;;;;;;;;4913847;29;20032;-63
2021/10/06 08:28:22;;;;;;;12.73;7.53;;;;;;;;;;4914118;29;20050;-65
2021/10/06 08:30:49;;;;;;;16.98;7.15;;;;;;;;;;4913620;29;20016;-64
2021/10/06 08:33:15;;;;;;;15.30;6.72;;;;;;;;;;4913809;29;20023;-62
2021/10/06 08:35:42;;;;;;;10.15;7.03;;;;;;;;;;4911072;29;20511;-63
2021/10/06 08:38:09;;;;;;;14.57;7.95;;;;;;;;;;4913923;29;20052;-62
2021/10/06 08:40:36;;;;;;;14.00;7.07;;;;;;;;;;4913584;29;20062;-64
2021/10/06 08:43:03;;;;;;;16.10;7.88;;;;;;;;;;4911111;29;20092;-64
2021/10/06 08:45:29;;;;;;;14.10;8.13;;;;;;;;;;4913488;29;20107;-65
2021/10/06 08:47:58;;;;;;;14.73;7.65;;;;;;;;;;4913635;29;20028;-64
2021/10/06 08:50:25;;;;;;;16.08;7.68;;;;;;;;;;4911194;29;20464;-68
2021/10/06 08:52:51;;;;;;;12.52;7.45;;;;;;;;;;4913793;29;20046;-64
2021/10/06 08:55:18;;;;;;;18.73;8.75;;;;;;;;;;4910574;29;20024;-65
2021/10/06 08:57:45;;;;;;;11.88;7.07;;;;;;;;;;4912708;29;20036;-64
2021/10/06 09:00:11;;;;;;;13.13;6.88;;;;;;;;;;4913361;29;20536;-64
2021/10/06 09:02:39;;;;;;;15.02;7.40;;;;;;;;;;4916788;29;20372;-64
2021/10/06 09:05:05;;;;;;;15.40;7.07;;;;;;;;;;4914433;29;20392;-64
2021/10/06 09:07:31;;;;;;;13.15;6.95;;;;;;;;;;4912000;29;20500;-64
2021/10/06 09:09:57;;;;;;;17.30;7.88;;;;;;;;;;4913094;29;20068;-65
2021/10/06 09:12:23;;;;;;;21.55;8.50;;;;;;;;;;4916113;29;20024;-67
2021/10/06 09:14:49;;;;;;;15.25;6.43;;;;;;;;;;4916662;29;20095;-64
2021/10/06 09:17:17;;;;;;;17.13;6.55;;;;;;;;;;4916829;29;20048;-65
2021/10/06 09:19:43;;;;;;;13.50;6.47;;;;;;;;;;4916679;29;20027;-65
2021/10/06 09:22:44;;;;;;;10.73;6.20;;;;;;;;;;4917540;29;20030;-65
2021/10/06 09:25:10;;;;;;;11.50;6.63;;;;;;;;;;4859210;29;20465;-64
2021/10/06 09:27:41;;;;;;;9.93;5.95;;;;;;;;;;4859428;29;20051;-63
2021/10/06 09:30:10;;;;;;;12.00;6.07;;;;;;;;;;4858642;29;20182;-64
2021/10/06 09:32:38;;;;;;;13.27;6.80;;;;;;;;;;4857850;29;20093;-64
2021/10/06 09:35:07;;;;;;;12.23;6.05;;;;;;;;;;4857632;29;20033;-63
2021/10/06 09:37:36;;;;;;;14.00;6.30;;;;;;;;;;4857355;29;20109;-64
2021/10/06 09:40:03;;;;;;;15.52;6.20;;;;;;;;;;4852671;29;20026;-63
2021/10/06 09:42:29;;;;;;;15.60;5.95;;;;;;;;;;4857158;29;20043;-63
2021/10/06 09:44:56;;;;;;;12.25;5.90;;;;;;;;;;4857328;29;20038;-63
2021/10/06 09:47:23;;;;;;;18.60;6.50;;;;;;;;;;4856284;29;20045;-63
2021/10/06 09:49:56;;;;;;;14.82;6.47;;;;;;;;;;4856931;29;20132;-63
2021/10/06 09:52:25;;;;;;;15.25;6.57;;;;;;;;;;4853738;29;20073;-64
2021/10/06 09:54:55;;;;;;;13.32;6.68;;;;;;;;;;4855099;29;20042;-63
2021/10/06 09:57:22;;;;;;;11.70;6.15;;;;;;;;;;4844767;29;20078;-65
2021/10/06 09:59:48;;;;;;;11.10;5.85;;;;;;;;;;4838801;29;20043;-63
2021/10/06 10:02:15;;;;;;;11.32;5.90;;;;;;;;;;4886188;29;20056;-63
2021/10/06 10:04:41;;;;;;;14.32;6.18;;;;;;;;;;4897034;29;20037;-63
2021/10/06 10:07:07;;;;;;;9.35;5.32;;;;;;;;;;4897472;29;20140;-63
2021/10/06 10:09:33;;;;;;;12.77;5.93;;;;;;;;;;4912890;29;20047;-63
2021/10/06 10:11:59;;;;;;;14.90;6.25;;;;;;;;;;4914643;29;20124;-63
2021/10/06 10:14:25;;;;;;;12.32;5.95;;;;;;;;;;4902631;29;20055;-62
2021/10/06 10:16:51;;;;;;;10.13;5.85;;;;;;;;;;4914164;29;20611;-63
2021/10/06 10:19:18;;;;;;;8.90;5.45;;;;;;;;;;4914004;29;20036;-63
2021/10/06 10:21:45;;;;;;;13.23;5.45;;;;;;;;;;4912619;29;20039;-62
2021/10/06 10:24:12;;;;;;;11.35;5.63;;;;;;;;;;4915290;29;20464;-65
2021/10/06 10:26:54;;;;;;;12.25;5.57;;;;;;;;;;4913452;29;20031;-63
2021/10/06 10:29:43;;;;;;;11.05;5.85;;;;;;;;;;4916103;29;20487;-63
2021/10/06 10:32:10;;;;;;;9.63;5.70;;;;;;;;;;4842199;29;20562;-63
2021/10/06 10:34:55;;;;;;;10.80;5.72;;;;;;;;;;4837554;29;20054;-63
2021/10/06 10:37:41;;;;;;;13.73;6.15;;;;;;;;;;4836224;29;20064;-63
2021/10/06 10:40:27;;;;;;;13.00;6.78;;;;;;;;;;4836464;29;20869;-63
2021/10/06 10:42:57;;;;;;;12.35;6.18;;;;;;;;;;4838739;29;20042;-68
2021/10/06 10:45:36;;;;;;;14.43;6.03;;;;;;;;;;4837700;29;20165;-68
2021/10/06 10:48:02;;;;;;;11.82;6.05;;;;;;;;;;4836271;29;20418;-66
2021/10/06 10:50:41;;;;;;;10.93;5.45;;;;;;;;;;4833516;29;20049;-67
2021/10/06 10:53:07;;;;;;;14.88;6.05;;;;;;;;;;4836318;29;20034;-68
2021/10/06 10:55:45;;;;;;;16.65;6.40;;;;;;;;;;4837784;29;20064;-67
2021/10/06 10:58:41;;;;;;;8.63;5.38;;;;;;;;;;4837654;29;20098;-68
2021/10/06 11:01:14;;;;;;;12.65;5.43;;;;;;;;;;4800129;29;20125;-67
2021/10/06 11:03:58;;;;;;;15.55;6.07;;;;;;;;;;4797716;29;20359;-67
2021/10/06 11:06:34;;;;;;;11.50;6.05;;;;;;;;;;4798426;29;20054;-66
2021/10/06 11:09:00;;;;;;;11.85;5.95;;;;;;;;;;4817219;29;20058;-66
2021/10/06 11:11:28;;;;;;;10.38;5.88;;;;;;;;;;4847363;29;20038;-66
2021/10/06 11:13:54;;;;;;;12.00;5.40;;;;;;;;;;4845317;29;20162;-67
2021/10/06 11:16:40;;;;;;;13.40;5.72;;;;;;;;;;4846724;29;20033;-66
2021/10/06 11:19:26;;;;;;;11.82;5.90;;;;;;;;;;4846528;29;20034;-68
2021/10/06 11:21:52;;;;;;;10.98;5.95;;;;;;;;;;4847346;29;20029;-67
2021/10/06 11:24:22;;;;;;;7.90;5.28;;;;;;;;;;4845023;29;20090;-68
2021/10/06 11:26:48;;;;;;;9.55;5.32;;;;;;;;;;4845776;29;20474;-66
2021/10/06 11:29:14;;;;;;;11.23;5.57;;;;;;;;;;4847086;29;20049;-67
2021/10/06 11:31:41;;;;;;;10.13;5.60;;;;;;;;;;4844354;29;20045;-70
2021/10/06 11:34:15;;;;;;;10.60;5.68;;;;;;;;;;4837618;29;20053;-67
2021/10/06 11:36:47;;;;;;;12.20;5.95;;;;;;;;;;4847618;29;20036;-67
2021/10/06 11:39:13;;;;;;;12.23;5.63;;;;;;;;;;4913668;29;20028;-65
2021/10/06 11:41:57;;;;;;;17.83;7.32;;;;;;;;;;4913344;29;20043;-63
2021/10/06 11:44:26;;;;;;;12.35;5.95;;;;;;;;;;4912559;29;20110;-67
2021/10/06 11:46:56;;;;;;;12.35;5.63;;;;;;;;;;4913526;29;20437;-66
2021/10/06 11:49:22;;;;;;;10.45;5.88;;;;;;;;;;4896245;29;20052;-66
2021/10/06 11:51:51;;;;;;;10.20;6.10;;;;;;;;;;4913603;29;20043;-68
2021/10/06 11:54:18;;;;;;;11.07;5.53;;;;;;;;;;4913640;29;20027;-68
2021/10/06 11:56:47;;;;;;;14.25;6.25;;;;;;;;;;4913740;29;20024;-67
2021/10/06 11:59:14;;;;;;;12.23;6.05;;;;;;;;;;4911225;29;20179;-68
2021/10/06 12:01:41;;;;;;;10.90;6.43;;;;;;;;;;4913425;29;20574;-66
2021/10/06 12:04:12;;;;;;;12.95;6.43;;;;;;;;;;4913797;29;20043;-68
2021/10/06 12:06:38;;;;;;;13.98;5.95;;;;;;;;;;4913094;29;20042;-66
2021/10/06 12:09:08;;;;;;;10.02;5.95;;;;;;;;;;4913406;29;20128;-66
2021/10/06 12:11:35;;;;;;;13.02;6.70;;;;;;;;;;4913307;29;20047;-66
2021/10/06 12:14:15;;;;;;;8.38;5.68;;;;;;;;;;4913594;29;20404;-68
2021/10/06 12:16:41;;;;;;;10.13;6.07;;;;;;;;;;4911467;29;20037;-68
2021/10/06 12:19:07;;;;;;;12.10;6.28;;;;;;;;;;4913163;29;20120;-69
2021/10/06 12:21:33;;;;;;;9.55;6.00;;;;;;;;;;4913316;29;20083;-66
2021/10/06 12:24:20;;;;;;;14.25;6.45;;;;;;;;;;4913598;29;20036;-67
2021/10/06 12:26:47;;;;;;;12.52;6.53;;;;;;;;;;4912147;29;20028;-68
2021/10/06 12:29:13;;;;;;;11.00;5.53;;;;;;;;;;4912974;29;20039;-67
2021/10/06 12:31:42;;;;;;;11.93;6.20;;;;;;;;;;4910592;29;20103;-68
2021/10/06 12:34:08;;;;;;;15.88;5.97;;;;;;;;;;4913497;29;20054;-69
2021/10/06 12:36:34;;;;;;;11.57;5.85;;;;;;;;;;4915853;29;20052;-66
2021/10/06 12:39:10;;;;;;;14.00;5.85;;;;;;;;;;4916755;29;20048;-67
2021/10/06 12:41:38;;;;;;;12.05;5.57;;;;;;;;;;4916974;29;20110;-68
2021/10/06 12:44:14;;;;;;;13.13;5.80;;;;;;;;;;4917068;29;20027;-68
2021/10/06 12:46:41;;;;;;;12.07;5.93;;;;;;;;;;4914485;29;20063;-70
2021/10/06 12:49:10;;;;;;;13.27;5.97;;;;;;;;;;4916100;29;20044;-66
2021/10/06 12:51:36;;;;;;;10.32;5.57;;;;;;;;;;4916861;29;20379;-70
2021/10/06 12:54:15;;;;;;;9.60;6.00;;;;;;;;;;4916871;29;20040;-67
2021/10/06 12:56:48;;;;;;;13.32;5.65;;;;;;;;;;4916739;29;20021;-71
2021/10/06 12:59:14;;;;;;;11.07;5.95;;;;;;;;;;4916504;29;20902;-67
2021/10/06 13:01:41;;;;;;;10.93;5.32;;;;;;;;;;4916342;29;20035;-71
2021/10/06 13:04:10;;;;;;;16.10;5.97;;;;;;;;;;4914324;29;20028;-67
2021/10/06 13:06:38;;;;;;;15.30;5.70;;;;;;;;;;4916522;29;20477;-67
2021/10/06 13:09:06;;;;;;;12.05;6.20;;;;;;;;;;4916376;29;20101;-67
2021/10/06 13:11:32;;;;;;;23.02;5.90;;;;;;;;;;4916199;29;20016;-68
2021/10/06 13:13:58;;;;;;;9.02;5.50;;;;;;;;;;4916316;29;20023;-68
2021/10/06 13:16:24;;;;;;;12.48;5.22;;;;;;;;;;4915944;29;20028;-66
2021/10/06 13:18:51;;;;;;;10.10;5.22;;;;;;;;;;4915543;29;20048;-67
2021/10/06 13:21:17;;;;;;;10.25;5.35;;;;;;;;;;4915659;29;20048;-65
2021/10/06 13:23:43;;;;;;;14.13;5.22;;;;;;;;;;4916769;29;20039;-67
2021/10/06 13:26:10;;;;;;;12.43;5.43;;;;;;;;;;4917412;29;20464;-67
2021/10/06 13:28:37;;;;;;;11.32;5.10;;;;;;;;;;4917348;29;20492;-67
2021/10/06 13:31:07;;;;;;;8.73;5.35;;;;;;;;;;4917168;29;20035;-68
2021/10/06 13:33:34;;;;;;;14.35;5.40;;;;;;;;;;4917043;29;20064;-68
2021/10/06 13:36:00;;;;;;;8.18;4.80;;;;;;;;;;4916574;29;20047;-66
2021/10/06 13:38:27;;;;;;;10.80;4.68;;;;;;;;;;4917152;29;20024;-66
2021/10/06 13:40:53;;;;;;;11.57;4.97;;;;;;;;;;4917061;29;20115;-67
2021/10/06 13:43:19;;;;;;;10.63;4.57;;;;;;;;;;4917169;29;20071;-67
2021/10/06 13:45:45;;;;;;;12.93;5.38;;;;;;;;;;4917129;29;20040;-67
2021/10/06 13:48:11;;;;;;;14.15;4.70;;;;;;;;;;4915967;29;20520;-67
2021/10/06 13:50:38;;;;;;;9.82;4.43;;;;;;;;;;4916710;29;20052;-67
2021/10/06 13:53:05;;;;;;;10.35;4.63;;;;;;;;;;4917015;29;20094;-67
2021/10/06 13:55:31;;;;;;;10.90;5.30;;;;;;;;;;4916970;29;20028;-67
2021/10/06 13:57:57;;;;;;;14.52;5.20;;;;;;;;;;4916564;29;20039;-66
2021/10/06 14:00:23;;;;;;;9.90;4.95;;;;;;;;;;4916603;29;20036;-65
2021/10/06 14:02:49;;;;;;;9.75;5.00;;;;;;;;;;4916369;29;20115;-70
2021/10/06 14:05:16;;;;;;;10.23;4.80;;;;;;;;;;4915726;29;20346;-67
2021/10/06 14:07:42;;;;;;;13.55;4.90;;;;;;;;;;4916356;29;20060;-66
2021/10/06 14:10:08;;;;;;;9.35;4.68;;;;;;;;;;4916525;29;20032;-68
2021/10/06 14:12:37;;;;;;;8.88;4.43;;;;;;;;;;4916223;29;20060;-67
2021/10/06 14:15:04;;;;;;;13.27;4.50;;;;;;;;;;4915708;29;20107;-69
2021/10/06 14:17:30;;;;;;;12.20;5.05;;;;;;;;;;4915995;29;20052;-66
2021/10/06 14:19:56;;;;;;;8.15;4.35;;;;;;;;;;4916335;29;20032;-65
2021/10/06 14:22:23;;;;;;;10.30;4.75;;;;;;;;;;4915999;29;20024;-67
2021/10/06 14:24:49;;;;;;;12.68;5.00;;;;;;;;;;4916188;29;20036;-64
2021/10/06 14:27:15;;;;;;;10.23;4.88;;;;;;;;;;4916021;29;20024;-64
2021/10/06 14:29:41;;;;;;;15.43;4.30;;;;;;;;;;4904573;29;20043;-65
2021/10/06 14:32:07;;;;;;;10.82;4.72;;;;;;;;;;4914975;29;20028;-65
2021/10/06 14:34:34;;;;;;;8.10;4.78;;;;;;;;;;4914811;29;20357;-68
2021/10/06 14:37:00;;;;;;;14.95;4.25;;;;;;;;;;4915310;29;20030;-65
2021/10/06 14:39:27;;;;;;;11.50;4.60;;;;;;;;;;4914726;29;20043;-64
2021/10/06 14:41:54;;;;;;;11.40;4.75;;;;;;;;;;4915345;29;20480;-64
2021/10/06 14:44:20;;;;;;;13.20;4.72;;;;;;;;;;4915702;29;20059;-65
2021/10/06 14:46:47;;;;;;;12.65;4.45;;;;;;;;;;4915878;29;20028;-64
2021/10/06 14:49:13;;;;;;;10.25;4.30;;;;;;;;;;4915113;29;20044;-64
2021/10/06 14:51:42;;;;;;;8.70;4.30;;;;;;;;;;4914845;29;20115;-64
2021/10/06 14:54:09;;;;;;;8.40;4.30;;;;;;;;;;4900381;29;20027;-63
2021/10/06 14:56:36;;;;;;;8.57;3.78;;;;;;;;;;4913953;29;20028;-63
2021/10/06 14:59:02;;;;;;;8.88;4.20;;;;;;;;;;4914366;29;20036;-63
2021/10/06 15:01:28;;;;;;;11.35;5.10;;;;;;;;;;4915353;29;20028;-63
2021/10/06 15:03:54;;;;;;;9.70;4.00;;;;;;;;;;4915308;29;20087;-63
2021/10/06 15:06:21;;;;;;;11.07;4.65;;;;;;;;;;4915625;29;20032;-62
2021/10/06 15:08:47;;;;;;;9.85;4.35;;;;;;;;;;4915021;29;20080;-63
2021/10/06 15:11:13;;;;;;;7.57;4.45;;;;;;;;;;4915451;29;20099;-63
2021/10/06 15:13:39;;;;;;;13.73;4.38;;;;;;;;;;4915015;29;20032;-63
2021/10/06 15:16:05;;;;;;;11.65;4.38;;;;;;;;;;4915295;29;20083;-64
2021/10/06 15:18:31;;;;;;;12.57;4.15;;;;;;;;;;4915042;29;20104;-64
2021/10/06 15:20:57;;;;;;;14.00;4.97;;;;;;;;;;4914670;29;20083;-63
2021/10/06 15:23:24;;;;;;;11.77;4.50;;;;;;;;;;4913492;29;20047;-64
2021/10/06 15:25:50;;;;;;;9.68;4.10;;;;;;;;;;4915027;29;20107;-68
2021/10/06 15:28:16;;;;;;;8.52;4.70;;;;;;;;;;4915346;29;20035;-66
2021/10/06 15:30:42;;;;;;;16.98;4.30;;;;;;;;;;4915187;29;20040;-64
2021/10/06 15:33:08;;;;;;;6.45;3.60;;;;;;;;;;4914753;29;20035;-64
2021/10/06 15:35:34;;;;;;;12.88;4.90;;;;;;;;;;4914683;29;20024;-62
2021/10/06 15:38:00;;;;;;;14.27;4.07;;;;;;;;;;4914664;29;20028;-70
2021/10/06 15:40:26;;;;;;;10.98;4.38;;;;;;;;;;4914981;29;20034;-64
2021/10/06 15:42:53;;;;;;;14.80;5.13;;;;;;;;;;4915118;29;20032;-65
2021/10/06 15:45:20;;;;;;;13.73;4.60;;;;;;;;;;4915135;29;20039;-63
2021/10/06 15:47:46;;;;;;;10.15;4.25;;;;;;;;;;4914971;29;20020;-66
2021/10/06 15:50:17;;;;;;;9.40;4.25;;;;;;;;;;4915121;29;20054;-65
2021/10/06 15:52:47;;;;;;;7.80;3.67;;;;;;;;;;4915041;29;20059;-64
2021/10/06 15:55:13;;;;;;;14.25;4.43;;;;;;;;;;4915061;29;20050;-64
2021/10/06 15:57:39;;;;;;;11.07;4.20;;;;;;;;;;4914598;29;20039;-64
2021/10/06 16:00:06;;;;;;;9.65;4.40;;;;;;;;;;4914676;29;20111;-64
2021/10/06 16:02:32;;;;;;;11.07;4.40;;;;;;;;;;4914261;29;20123;-65
2021/10/06 16:04:59;;;;;;;16.95;4.45;;;;;;;;;;4914802;29;20040;-66
2021/10/06 16:07:25;;;;;;;11.20;4.80;;;;;;;;;;4914806;29;20095;-67
2021/10/06 16:09:51;;;;;;;12.18;4.35;;;;;;;;;;4914491;29;20083;-66
2021/10/06 16:12:17;;;;;;;11.57;4.60;;;;;;;;;;4914872;29;20036;-65
2021/10/06 16:14:46;;;;;;;13.80;4.93;;;;;;;;;;4914619;29;20506;-69
2021/10/06 16:17:14;;;;;;;11.88;4.75;;;;;;;;;;4914349;29;20059;-66
2021/10/06 16:19:40;;;;;;;13.75;4.90;;;;;;;;;;4914633;29;20032;-65
2021/10/06 16:22:06;;;;;;;10.00;4.72;;;;;;;;;;4914824;29;20028;-66